createdAt,value
2024-01-10T00:01:30.622Z,75.12
2024-01-10T00:04:01.351Z,75.16
2024-01-10T00:06:35.035Z,74.76
2024-01-10T00:09:05.990Z,74.90
2024-01-10T00:11:36.834Z,74.86
2024-01-10T00:14:08.799Z,74.97
2024-01-10T00:16:39.914Z,75.12
2024-01-10T00:19:10.827Z,75.27
2024-01-10T00:21:44.581Z,75.01
2024-01-10T00:24:15.527Z,75.01
2024-01-10T00:26:46.342Z,75.22
2024-01-10T00:29:17.137Z,75.19
2024-01-10T00:31:47.930Z,75.29
2024-01-10T00:34:18.785Z,75.49
2024-01-10T00:36:52.622Z,75.35
2024-01-10T00:39:23.702Z,75.26
2024-01-10T00:41:54.397Z,75.42
2024-01-10T00:44:25.305Z,75.33
2024-01-10T00:46:56.122Z,75.36
2024-01-10T00:49:26.843Z,75.45
2024-01-10T00:52:00.237Z,75.37
2024-01-10T00:54:28.473Z,75.26
2024-01-10T00:56:59.293Z,75.31
2024-01-10T00:59:29.943Z,75.40
2024-01-10T01:02:01.157Z,75.35
2024-01-10T01:04:31.975Z,75.41
2024-01-10T01:07:05.462Z,75.41
2024-01-10T01:09:36.404Z,75.46
2024-01-10T01:12:08.044Z,75.51
2024-01-10T01:14:38.886Z,75.68
2024-01-10T01:17:09.894Z,75.42
2024-01-10T01:19:40.846Z,75.65
2024-01-10T01:22:14.357Z,75.70
2024-01-10T01:24:45.175Z,75.58
2024-01-10T01:27:15.878Z,75.64
2024-01-10T01:29:46.566Z,75.66
2024-01-10T01:32:17.346Z,75.65
2024-01-10T01:34:48.265Z,75.68
2024-01-10T01:37:21.703Z,75.71
2024-01-10T01:39:52.319Z,75.70
2024-01-10T01:42:22.926Z,75.79
2024-01-10T01:44:54.263Z,75.89
2024-01-10T01:47:25.585Z,75.91
2024-01-10T01:49:56.367Z,75.87
2024-01-10T01:52:33.666Z,76.07
2024-01-10T01:55:04.623Z,76.03
2024-01-10T01:57:35.846Z,75.95
2024-01-10T02:00:07.036Z,76.15
2024-01-10T02:02:39.910Z,75.93
2024-01-10T02:05:11.004Z,76.02
2024-01-10T02:07:44.299Z,75.97
2024-01-10T02:10:14.960Z,76.03
2024-01-10T02:12:45.676Z,75.91
2024-01-10T02:15:18.223Z,75.90
2024-01-10T02:17:48.916Z,76.00
2024-01-10T02:20:22.292Z,75.84
2024-01-10T02:22:55.562Z,76.05
2024-01-10T02:25:28.836Z,76.23
2024-01-10T02:27:59.614Z,76.34
2024-01-10T02:30:30.433Z,76.35
2024-01-10T02:33:01.408Z,76.30
2024-01-10T02:35:34.170Z,76.37
2024-01-10T02:38:06.328Z,76.51
2024-01-10T02:40:39.695Z,76.59
2024-01-10T02:43:11.218Z,76.32
2024-01-10T02:45:41.789Z,76.68
2024-01-10T02:48:12.547Z,76.71
2024-01-10T02:50:43.350Z,76.65
2024-01-10T02:53:14.289Z,76.89
2024-01-10T02:55:47.952Z,76.91
2024-01-10T02:58:18.671Z,76.84
2024-01-10T03:00:49.708Z,76.91
2024-01-10T03:03:20.513Z,76.89
2024-01-10T03:05:51.285Z,77.08
2024-01-10T03:08:22.120Z,76.80
2024-01-10T03:10:55.407Z,76.88
2024-01-10T03:13:26.159Z,76.80
2024-01-10T03:15:56.806Z,76.89
2024-01-10T03:18:25.498Z,76.95
2024-01-10T03:20:57.141Z,76.92
2024-01-10T03:23:28.955Z,77.04
2024-01-10T03:26:02.799Z,77.02
2024-01-10T03:28:33.959Z,76.94
2024-01-10T03:31:04.563Z,77.12
2024-01-10T03:33:35.319Z,76.97
2024-01-10T03:36:06.100Z,77.16
2024-01-10T03:38:36.879Z,77.14
2024-01-10T03:41:10.534Z,77.22
2024-01-10T03:43:41.647Z,77.17
2024-01-10T03:46:12.440Z,77.21
2024-01-10T03:48:49.437Z,77.24
2024-01-10T03:51:21.160Z,77.13
2024-01-10T03:53:52.795Z,77.16
2024-01-10T03:56:26.325Z,77.03
2024-01-10T03:58:57.377Z,77.15
2024-01-10T04:01:27.950Z,77.06
2024-01-10T04:03:58.777Z,77.11
2024-01-10T04:06:29.955Z,77.14
2024-01-10T04:09:00.646Z,77.01
2024-01-10T04:11:33.995Z,77.09
2024-01-10T04:14:05.124Z,77.03
2024-01-10T04:16:35.815Z,77.04
2024-01-10T04:19:06.806Z,76.95
2024-01-10T04:21:37.716Z,77.02
2024-01-10T04:24:08.887Z,76.86
2024-01-10T04:26:42.119Z,77.09
2024-01-10T04:29:12.749Z,77.00
2024-01-10T04:31:43.620Z,77.02
2024-01-10T04:34:15.188Z,77.36
2024-01-10T04:36:46.251Z,77.12
2024-01-10T04:39:16.970Z,77.27
2024-01-10T04:41:50.397Z,77.10
2024-01-10T04:44:21.137Z,77.05
2024-01-10T04:46:52.016Z,77.12
2024-01-10T04:49:22.677Z,77.07
2024-01-10T04:51:54.694Z,77.12
2024-01-10T04:54:25.854Z,77.17
2024-01-10T04:56:59.014Z,77.03
2024-01-10T04:59:29.672Z,76.97
2024-01-10T05:02:00.553Z,77.00
2024-01-10T05:04:31.258Z,77.20
2024-01-10T05:07:01.980Z,77.36
2024-01-10T05:09:32.637Z,77.33
2024-01-10T05:12:06.096Z,77.17
2024-01-10T05:14:36.721Z,77.08
2024-01-10T05:17:07.999Z,77.00
2024-01-10T05:19:38.741Z,76.92
2024-01-10T05:22:09.894Z,76.97
2024-01-10T05:24:40.693Z,76.86
2024-01-10T05:27:13.880Z,76.93
2024-01-10T05:29:44.536Z,77.00
2024-01-10T05:32:15.153Z,76.75
2024-01-10T05:34:45.839Z,77.11
2024-01-10T05:37:16.474Z,77.21
2024-01-10T05:39:47.346Z,76.97
2024-01-10T05:42:20.686Z,76.90
2024-01-10T05:44:51.540Z,77.28
2024-01-10T05:47:22.213Z,77.29
2024-01-10T05:49:54.444Z,77.30
2024-01-10T05:52:25.503Z,77.33
2024-01-10T05:54:56.653Z,77.27
2024-01-10T05:57:30.025Z,77.31
2024-01-10T06:00:00.893Z,77.31
2024-01-10T06:02:31.688Z,77.32
2024-01-10T06:05:07.428Z,77.18
2024-01-10T06:07:38.677Z,77.42
2024-01-10T06:10:11.088Z,77.01
2024-01-10T06:12:44.351Z,77.30
2024-01-10T06:15:15.368Z,77.25
2024-01-10T06:17:46.350Z,77.25
2024-01-10T06:20:17.634Z,77.41
2024-01-10T06:22:48.261Z,77.60
2024-01-10T06:25:18.998Z,77.64
2024-01-10T06:27:52.403Z,77.60
2024-01-10T06:30:23.070Z,77.65
2024-01-10T06:32:53.905Z,77.64
2024-01-10T06:35:24.943Z,77.72
2024-01-10T06:37:55.760Z,77.60
2024-01-10T06:40:26.394Z,77.63
2024-01-10T06:42:59.710Z,77.51
2024-01-10T06:45:30.902Z,77.63
2024-01-10T06:48:01.678Z,77.64
2024-01-10T06:50:32.732Z,77.67
2024-01-10T06:53:03.497Z,77.62
2024-01-10T06:55:34.258Z,77.50
2024-01-10T06:58:08.097Z,77.60
2024-01-10T07:00:39.771Z,77.56
2024-01-10T07:03:11.018Z,77.55
2024-01-10T07:05:41.824Z,77.62
2024-01-10T07:08:12.745Z,77.61
2024-01-10T07:10:43.507Z,77.77
2024-01-10T07:13:17.179Z,77.61
2024-01-10T07:15:48.310Z,77.46
2024-01-10T07:18:19.046Z,77.53
2024-01-10T07:20:49.749Z,77.46
2024-01-10T07:23:20.645Z,77.34
2024-01-10T07:25:51.464Z,77.46
2024-01-10T07:28:24.904Z,77.40
2024-01-10T07:30:56.253Z,77.36
2024-01-10T07:33:27.046Z,77.27
2024-01-10T07:35:57.738Z,77.58
2024-01-10T07:38:28.493Z,77.35
2024-01-10T07:41:00.792Z,77.37
2024-01-10T07:43:34.321Z,77.24
2024-01-10T07:46:07.883Z,77.20
2024-01-10T07:48:39.320Z,77.22
2024-01-10T07:51:11.026Z,77.28
2024-01-10T07:53:41.661Z,77.37
2024-01-10T07:56:14.155Z,77.42
2024-01-10T07:58:47.470Z,77.38
2024-01-10T08:01:18.946Z,77.35
2024-01-10T08:03:49.765Z,77.25
2024-01-10T08:06:26.980Z,77.26
2024-01-10T08:09:05.878Z,77.34
2024-01-10T08:11:36.790Z,76.99
2024-01-10T08:14:10.518Z,77.03
2024-01-10T08:16:41.406Z,77.04
2024-01-10T08:19:12.542Z,77.02
2024-01-10T08:21:43.439Z,76.92
2024-01-10T08:24:14.738Z,76.88
2024-01-10T08:26:45.541Z,76.73
2024-01-10T08:29:19.233Z,76.71
2024-01-10T08:31:50.257Z,76.82
2024-01-10T08:34:21.045Z,76.83
2024-01-10T08:36:52.110Z,76.79
2024-01-10T08:39:23.289Z,76.53
2024-01-10T08:41:53.996Z,76.52
2024-01-10T08:44:27.567Z,76.58
2024-01-10T08:46:58.476Z,76.48
2024-01-10T08:49:29.194Z,76.35
2024-01-10T08:52:00.278Z,76.26
2024-01-10T08:54:31.052Z,76.11
2024-01-10T08:57:01.919Z,76.17
2024-01-10T08:59:35.523Z,75.99
2024-01-10T09:02:06.526Z,76.02
2024-01-10T09:04:38.518Z,76.01
2024-01-10T09:07:11.553Z,75.98
2024-01-10T09:09:42.219Z,75.90
2024-01-10T09:12:13.222Z,75.66
2024-01-10T09:14:46.454Z,75.66
2024-01-10T09:17:17.431Z,75.82
2024-01-10T09:19:48.138Z,75.69
2024-01-10T09:22:18.767Z,75.46
2024-01-10T09:24:49.453Z,75.43
2024-01-10T09:27:20.325Z,75.34
2024-01-10T09:29:53.571Z,75.30
2024-01-10T09:32:24.604Z,75.43
2024-01-10T09:34:55.448Z,75.36
2024-01-10T09:37:26.868Z,75.07
2024-01-10T09:39:57.520Z,75.17
2024-01-10T09:42:29.781Z,75.16
2024-01-10T09:45:04.535Z,75.01
2024-01-10T09:47:36.917Z,74.70
2024-01-10T09:50:08.919Z,74.72
2024-01-10T09:52:45.505Z,74.70
2024-01-10T09:55:17.819Z,74.58
2024-01-10T09:57:48.515Z,74.39
2024-01-10T10:00:22.317Z,74.24
2024-01-10T10:02:54.693Z,74.34
2024-01-10T10:05:26.491Z,74.27
2024-01-10T10:07:59.115Z,74.23
2024-01-10T10:10:29.827Z,74.05
2024-01-10T10:13:00.626Z,73.98
2024-01-10T10:15:34.158Z,73.86
2024-01-10T10:18:05.111Z,73.58
2024-01-10T10:20:37.978Z,73.34
2024-01-10T10:23:11.984Z,73.16
2024-01-10T10:25:49.672Z,73.16
2024-01-10T10:28:25.609Z,73.07
2024-01-10T10:31:06.107Z,72.47
2024-01-10T10:33:37.067Z,72.16
2024-01-10T10:36:08.735Z,72.01
2024-01-10T10:38:40.370Z,72.15
2024-01-10T10:41:12.537Z,72.14
2024-01-10T10:43:44.443Z,72.37
2024-01-10T10:46:17.739Z,72.67
2024-01-10T10:48:49.473Z,72.49
2024-01-10T10:51:23.442Z,72.39
2024-01-10T10:53:54.848Z,72.36
2024-01-10T10:56:25.691Z,72.42
2024-01-10T10:58:58.034Z,72.32
2024-01-10T11:01:32.152Z,71.98
2024-01-10T11:04:03.420Z,71.86
2024-01-10T11:06:35.590Z,71.93
2024-01-10T11:09:12.640Z,71.77
2024-01-10T11:11:59.337Z,72.04
2024-01-10T11:14:41.141Z,72.10
2024-01-10T11:17:44.541Z,72.03
2024-01-10T11:20:38.540Z,72.09
2024-01-10T11:23:53.013Z,71.77
2024-01-10T11:26:24.386Z,71.64
2024-01-10T11:28:56.073Z,71.85
2024-01-10T11:31:33.284Z,71.58
2024-01-10T11:34:06.324Z,71.63
2024-01-10T11:36:39.848Z,70.49
2024-01-10T11:39:13.494Z,69.15
2024-01-10T11:41:44.590Z,69.37
2024-01-10T11:44:28.075Z,69.14
2024-01-10T11:47:00.036Z,69.67
2024-01-10T11:49:31.294Z,70.49
2024-01-10T11:52:04.982Z,71.06
2024-01-10T11:54:44.168Z,71.01
2024-01-10T11:57:15.944Z,70.99
2024-01-10T11:59:48.178Z,70.87
2024-01-10T12:02:19.316Z,70.97
2024-01-10T12:04:50.767Z,70.12
2024-01-10T12:07:25.283Z,70.06
2024-01-10T12:09:56.632Z,70.19
2024-01-10T12:12:27.954Z,70.10
2024-01-10T12:14:59.008Z,70.30
2024-01-10T12:17:32.067Z,69.96
2024-01-10T12:20:02.887Z,68.96
2024-01-10T12:22:36.361Z,68.78
2024-01-10T12:25:08.948Z,68.79
2024-01-10T12:27:40.006Z,69.13
2024-01-10T12:30:12.334Z,69.32
2024-01-10T12:32:43.173Z,69.24
2024-01-10T12:35:14.227Z,69.66
2024-01-10T12:37:57.911Z,69.81
2024-01-10T12:40:29.066Z,68.17
2024-01-10T12:43:07.206Z,69.50
2024-01-10T12:45:38.002Z,68.53
2024-01-10T12:48:10.055Z,68.41
2024-01-10T12:50:41.017Z,69.01
2024-01-10T12:53:14.382Z,69.44
2024-01-10T12:55:45.380Z,69.41
2024-01-10T12:58:16.187Z,68.78
2024-01-10T13:00:47.129Z,68.96
2024-01-10T13:03:17.945Z,69.12
2024-01-10T13:05:48.598Z,69.09
2024-01-10T13:08:23.232Z,68.81
2024-01-10T13:10:54.228Z,68.58
2024-01-10T13:13:25.519Z,68.20
2024-01-10T13:15:57.190Z,69.17
2024-01-10T13:18:30.095Z,69.27
2024-01-10T13:21:01.079Z,69.63
2024-01-10T13:23:35.003Z,68.88
2024-01-10T13:26:05.843Z,68.11
2024-01-10T13:28:36.738Z,67.78
2024-01-10T13:31:08.011Z,68.13
2024-01-10T13:33:46.203Z,69.05
2024-01-10T13:36:18.247Z,68.41
2024-01-10T13:38:51.701Z,68.71
2024-01-10T13:41:22.371Z,68.71
2024-01-10T13:43:53.173Z,68.83
2024-01-10T13:46:24.154Z,68.47
2024-01-10T13:48:54.959Z,68.43
2024-01-10T13:51:25.900Z,67.35
2024-01-10T13:53:59.513Z,68.19
2024-01-10T13:56:31.493Z,67.75
2024-01-10T13:59:02.353Z,68.41
2024-01-10T14:01:33.142Z,68.41
2024-01-10T14:04:03.918Z,68.01
2024-01-10T14:06:34.811Z,67.67
2024-01-10T14:09:11.360Z,67.78
2024-01-10T14:11:42.491Z,67.62
2024-01-10T14:14:13.371Z,67.63
2024-01-10T14:16:49.367Z,67.92
2024-01-10T14:19:21.081Z,67.56
2024-01-10T14:21:52.234Z,68.09
2024-01-10T14:24:25.920Z,68.63
2024-01-10T14:26:56.557Z,68.14
2024-01-10T14:29:27.473Z,68.13
2024-01-10T14:34:33.545Z,68.59
2024-01-10T14:37:05.592Z,68.04
2024-01-10T14:39:41.425Z,68.23
2024-01-10T14:42:12.992Z,68.22
2024-01-10T14:44:44.592Z,68.46
2024-01-10T14:47:16.453Z,68.44
2024-01-10T14:49:47.280Z,68.38
2024-01-10T14:52:18.321Z,68.95
2024-01-10T14:54:51.724Z,68.61
2024-01-10T14:57:23.363Z,67.72
2024-01-10T14:59:54.283Z,68.33
2024-01-10T15:02:25.344Z,67.71
2024-01-10T15:04:56.538Z,67.82
2024-01-10T15:07:27.755Z,68.26
2024-01-10T15:10:04.274Z,68.59
2024-01-10T15:12:35.619Z,68.33
2024-01-10T15:15:06.511Z,68.59
2024-01-10T15:17:37.741Z,68.53
2024-01-10T15:20:10.255Z,68.70
2024-01-10T15:22:41.112Z,68.74
2024-01-10T15:25:14.979Z,69.44
2024-01-10T15:27:45.727Z,68.88
2024-01-10T15:30:17.965Z,68.95
2024-01-10T15:32:50.090Z,69.26
2024-01-10T15:35:23.922Z,69.41
2024-01-10T15:37:54.813Z,69.54
2024-01-10T15:40:28.071Z,70.00
2024-01-10T15:42:59.206Z,69.78
2024-01-10T15:45:30.115Z,69.50
2024-01-10T15:48:01.006Z,69.49
2024-01-10T15:50:32.140Z,69.50
2024-01-10T15:53:03.155Z,69.58
2024-01-10T15:55:38.014Z,69.80
2024-01-10T15:58:08.846Z,69.52
2024-01-10T16:00:39.782Z,69.68
2024-01-10T16:03:10.816Z,69.73
2024-01-10T16:05:41.796Z,70.27
2024-01-10T16:08:12.929Z,70.03
2024-01-10T16:10:47.054Z,70.41
2024-01-10T16:13:18.819Z,70.15
2024-01-10T16:15:49.703Z,70.08
2024-01-10T16:18:20.633Z,70.70
2024-01-10T16:20:51.557Z,70.55
2024-01-10T16:23:22.608Z,70.73
2024-01-10T16:25:56.572Z,71.01
2024-01-10T16:28:29.728Z,70.73
2024-01-10T16:31:01.234Z,70.39
2024-01-10T16:33:35.411Z,70.90
2024-01-10T16:36:06.349Z,70.68
2024-01-10T16:38:37.486Z,70.65
2024-01-10T16:41:11.678Z,70.83
2024-01-10T16:43:42.992Z,70.97
2024-01-10T16:46:13.662Z,70.88
2024-01-10T16:48:44.399Z,71.05
2024-01-10T16:51:15.080Z,70.72
2024-01-10T16:53:45.928Z,71.04
2024-01-10T16:56:19.530Z,71.14
2024-01-10T16:58:50.695Z,71.17
2024-01-10T17:01:21.447Z,71.29
2024-01-10T17:03:52.874Z,71.44
2024-01-10T17:06:24.069Z,71.27
2024-01-10T17:08:54.937Z,71.61
2024-01-10T17:11:28.628Z,71.41
2024-01-10T17:13:59.553Z,71.27
2024-01-10T17:16:30.414Z,71.62
2024-01-10T17:19:01.994Z,71.68
2024-01-10T17:21:32.672Z,71.74
2024-01-10T17:24:03.520Z,71.91
2024-01-10T17:26:36.982Z,72.05
2024-01-10T17:29:08.242Z,72.33
2024-01-10T17:31:39.069Z,72.04
2024-01-10T17:34:36.617Z,72.44
2024-01-10T17:37:42.903Z,72.31
2024-01-10T17:40:40.939Z,72.68
2024-01-10T17:43:28.674Z,72.52
2024-01-10T17:46:13.139Z,72.23
2024-01-10T17:48:53.979Z,72.49
2024-01-10T17:51:49.844Z,72.49
2024-01-10T17:54:55.187Z,72.46
2024-01-10T18:03:55.683Z,72.85
2024-01-10T18:06:51.172Z,72.87
2024-01-10T18:09:31.813Z,73.04
2024-01-10T18:12:46.691Z,73.02
2024-01-10T18:15:34.903Z,73.05
2024-01-10T18:18:15.014Z,73.25
2024-01-10T18:21:23.050Z,73.32
2024-01-10T18:24:27.014Z,73.41
2024-01-10T18:27:03.691Z,73.26
2024-01-10T18:29:39.800Z,73.61
2024-01-10T18:32:21.164Z,73.67
2024-01-10T18:35:14.884Z,73.80
2024-01-10T18:37:55.323Z,74.11
2024-01-10T18:40:48.517Z,74.03
2024-01-10T18:43:34.762Z,74.48
2024-01-10T18:46:22.178Z,74.15
2024-01-10T18:49:11.654Z,74.12
2024-01-10T18:52:10.067Z,74.41
2024-01-10T18:54:47.854Z,74.72
2024-01-10T18:57:34.864Z,74.60
2024-01-10T19:00:28.017Z,74.67
2024-01-10T19:03:08.085Z,74.59
2024-01-10T19:05:45.495Z,74.63
2024-01-10T19:08:18.892Z,74.63
2024-01-10T19:10:50.090Z,74.76
2024-01-10T19:13:21.282Z,74.87
2024-01-10T19:15:52.636Z,74.74
2024-01-10T19:18:23.421Z,74.84
2024-01-10T19:20:54.206Z,75.25
2024-01-10T19:23:27.604Z,75.15
2024-01-10T19:25:59.981Z,75.37
2024-01-10T19:28:31.206Z,75.23
2024-01-10T19:31:02.100Z,75.17
2024-01-10T19:33:33.014Z,75.34
2024-01-10T19:36:03.723Z,75.55
2024-01-10T19:38:36.975Z,75.58
2024-01-10T19:44:04.194Z,75.63
2024-01-10T19:46:34.822Z,75.52
2024-01-10T19:49:05.537Z,75.95
2024-01-10T19:51:36.319Z,75.93
2024-01-10T19:54:09.758Z,76.02
2024-01-10T19:56:41.131Z,76.04
2024-01-10T19:59:11.836Z,75.85
2024-01-10T20:01:45.341Z,75.96
2024-01-10T20:04:16.346Z,76.00
2024-01-10T20:06:47.251Z,75.84
2024-01-10T20:09:20.456Z,76.19
2024-01-10T20:11:51.063Z,76.27
2024-01-10T20:14:21.667Z,76.18
2024-01-10T20:16:52.459Z,76.08
2024-01-10T20:19:23.430Z,76.16
2024-01-10T20:21:54.238Z,76.39
2024-01-10T20:24:27.611Z,76.41
2024-01-10T20:26:58.377Z,76.37
2024-01-10T20:29:32.015Z,76.36
2024-01-10T20:32:03.333Z,76.56
2024-01-10T20:34:34.123Z,76.56
2024-01-10T20:37:04.923Z,76.46
2024-01-10T20:39:38.536Z,76.48
2024-01-10T20:42:09.767Z,76.57
2024-01-10T20:44:42.344Z,76.64
2024-01-10T20:47:13.198Z,76.74
2024-01-10T20:49:43.938Z,76.74
2024-01-10T20:52:15.844Z,76.70
2024-01-10T20:54:51.055Z,76.67
2024-01-10T20:57:22.461Z,76.72
2024-01-10T20:59:55.559Z,76.88
2024-01-10T21:02:26.694Z,77.10
2024-01-10T21:04:57.386Z,77.20
2024-01-10T21:07:28.258Z,77.54
2024-01-10T21:10:02.039Z,77.35
2024-01-10T21:12:34.335Z,77.61
2024-01-10T21:15:05.201Z,77.36
2024-01-10T21:17:36.163Z,77.50
2024-01-10T21:20:07.836Z,77.46
2024-01-10T21:22:39.021Z,77.53
2024-01-10T21:25:12.705Z,77.46
2024-01-10T21:27:44.240Z,77.46
2024-01-10T21:30:16.791Z,77.56
2024-01-10T21:32:47.574Z,77.80
2024-01-10T21:35:18.601Z,77.65
2024-01-10T21:37:49.492Z,77.44
2024-01-10T21:40:23.197Z,77.50
2024-01-10T21:42:54.259Z,77.43
2024-01-10T21:45:25.764Z,77.71
2024-01-10T21:47:56.781Z,77.74
2024-01-10T21:50:28.276Z,77.73
2024-01-10T21:52:59.797Z,77.91
2024-01-10T21:55:33.135Z,77.90
2024-01-10T21:58:03.718Z,78.29
2024-01-10T22:00:34.826Z,77.95
2024-01-10T22:03:07.370Z,78.34
2024-01-10T22:05:40.115Z,77.89
2024-01-10T22:08:11.084Z,78.17
2024-01-10T22:10:44.624Z,78.33
2024-01-10T22:13:15.599Z,78.12
2024-01-10T22:15:46.388Z,78.14
2024-01-10T22:18:17.267Z,78.32
2024-01-10T22:20:48.218Z,78.05
2024-01-10T22:23:19.766Z,78.40
2024-01-10T22:25:55.797Z,78.38
2024-01-10T22:28:27.132Z,78.40
2024-01-10T22:30:58.039Z,78.45
2024-01-10T22:33:29.196Z,78.36
2024-01-10T22:36:00.146Z,78.36
2024-01-10T22:38:31.129Z,78.43
2024-01-10T22:41:04.696Z,78.60
2024-01-10T22:43:35.833Z,78.89
2024-01-10T22:46:06.647Z,78.68
2024-01-10T22:48:37.700Z,79.02
2024-01-10T22:51:08.817Z,79.11
2024-01-10T22:53:40.165Z,79.20
2024-01-10T22:56:13.692Z,79.26
2024-01-10T22:58:44.888Z,79.41
2024-01-10T23:01:16.288Z,79.37
2024-01-10T23:03:47.108Z,79.53
2024-01-10T23:06:20.109Z,79.43
2024-01-10T23:08:54.403Z,79.38
2024-01-10T23:11:28.973Z,79.17
2024-01-10T23:13:59.810Z,78.95
2024-01-10T23:16:30.650Z,78.74
2024-01-10T23:19:01.511Z,78.62
2024-01-10T23:21:33.991Z,78.66
2024-01-10T23:24:06.240Z,78.48
2024-01-10T23:26:40.298Z,78.32
2024-01-10T23:29:11.396Z,78.54
2024-01-10T23:31:43.608Z,78.13
2024-01-10T23:34:14.918Z,78.23
2024-01-10T23:36:45.767Z,78.06
2024-01-10T23:39:16.545Z,78.07
2024-01-10T23:41:50.369Z,77.96
2024-01-10T23:44:21.102Z,78.34
2024-01-10T23:46:52.758Z,78.20
2024-01-10T23:49:23.574Z,78.08
2024-01-10T23:51:54.421Z,78.20
2024-01-10T23:54:25.128Z,78.30
2024-01-10T23:56:58.763Z,78.23
2024-01-10T23:59:29.824Z,78.23
